createdAt,value
2018-09-29T00:00:01.044Z,97.04
2018-09-29T00:01:01.514Z,97.02
2018-09-29T00:02:01.986Z,97.05
2018-09-29T00:03:02.473Z,97.05
2018-09-29T00:04:02.929Z,97.09
2018-09-29T00:05:03.399Z,97.13
2018-09-29T00:06:03.873Z,97.17
2018-09-29T00:07:04.343Z,97.15
2018-09-29T00:08:04.812Z,97.19
2018-09-29T00:09:05.284Z,97.23
2018-09-29T00:10:05.768Z,97.22
2018-09-29T00:11:06.265Z,97.22
2018-09-29T00:12:06.694Z,97.26
2018-09-29T00:13:07.164Z,97.30
2018-09-29T00:14:07.634Z,97.31
2018-09-29T00:15:08.106Z,97.28
2018-09-29T00:16:08.574Z,97.20
2018-09-29T00:17:09.050Z,97.16
2018-09-29T00:18:09.517Z,97.11
2018-09-29T00:19:09.987Z,97.12
2018-09-29T00:20:10.456Z,97.07
2018-09-29T00:21:10.927Z,97.14
2018-09-29T00:22:11.396Z,97.14
2018-09-29T00:23:11.869Z,97.18
2018-09-29T00:24:12.339Z,97.20
2018-09-29T00:25:12.807Z,97.22
2018-09-29T00:26:13.278Z,97.25
2018-09-29T00:27:13.750Z,97.25
2018-09-29T00:28:14.219Z,97.26
2018-09-29T00:29:14.690Z,97.27
2018-09-29T00:30:15.162Z,97.33
2018-09-29T00:31:15.635Z,97.33
2018-09-29T00:32:16.106Z,97.33
2018-09-29T00:33:16.577Z,97.36
2018-09-29T00:34:17.052Z,97.32
2018-09-29T00:35:17.523Z,97.32
2018-09-29T00:36:17.994Z,97.35
2018-09-29T00:37:18.464Z,97.39
2018-09-29T00:38:18.938Z,97.38
2018-09-29T00:39:19.410Z,97.42
2018-09-29T00:40:19.884Z,97.43
2018-09-29T00:41:20.356Z,97.43
2018-09-29T00:42:20.830Z,97.43
2018-09-29T00:43:21.305Z,97.46
2018-09-29T00:44:21.778Z,97.45
2018-09-29T00:45:22.252Z,97.45
2018-09-29T00:46:22.725Z,97.45
2018-09-29T00:47:23.199Z,97.46
2018-09-29T00:48:23.672Z,97.46
2018-09-29T00:49:24.148Z,97.46
2018-09-29T00:50:24.622Z,97.41
2018-09-29T00:51:25.098Z,97.40
2018-09-29T00:52:25.568Z,97.41
2018-09-29T00:53:26.042Z,97.37
2018-09-29T00:54:26.516Z,97.36
2018-09-29T00:55:26.991Z,97.40
2018-09-29T00:56:27.463Z,97.40
2018-09-29T00:57:27.936Z,97.41
2018-09-29T00:58:28.415Z,97.43
2018-09-29T00:59:28.884Z,97.42
2018-09-29T01:00:29.359Z,97.45
2018-09-29T01:01:29.834Z,97.45
2018-09-29T01:02:30.307Z,97.42
2018-09-29T01:03:30.777Z,97.43
2018-09-29T01:04:31.251Z,97.46
2018-09-29T01:05:31.722Z,97.45
2018-09-29T01:06:32.193Z,97.40
2018-09-29T01:07:32.667Z,97.36
2018-09-29T01:08:33.139Z,97.31
2018-09-29T01:09:33.611Z,97.23
2018-09-29T01:10:34.083Z,97.15
2018-09-29T01:11:34.556Z,97.04
2018-09-29T01:12:35.026Z,97.01
2018-09-29T01:13:35.496Z,97.01
2018-09-29T01:14:35.969Z,97.06
2018-09-29T01:15:36.439Z,97.06
2018-09-29T01:16:36.910Z,97.03
2018-09-29T01:17:37.378Z,96.91
2018-09-29T01:18:37.849Z,96.75
2018-09-29T01:19:38.320Z,96.49
2018-09-29T01:20:38.791Z,96.29
2018-09-29T01:21:39.264Z,96.04
2018-09-29T01:22:39.732Z,95.83
2018-09-29T01:23:40.201Z,95.61
2018-09-29T01:24:40.674Z,95.54
2018-09-29T01:25:41.142Z,95.45
2018-09-29T01:26:41.612Z,95.46
2018-09-29T01:27:42.084Z,95.49
2018-09-29T01:28:42.570Z,95.57
2018-09-29T01:29:43.023Z,95.64
2018-09-29T01:30:43.492Z,95.71
2018-09-29T01:31:43.972Z,95.78
2018-09-29T01:32:44.432Z,95.84
2018-09-29T01:33:44.904Z,95.77
2018-09-29T01:34:45.374Z,95.70
2018-09-29T01:35:45.846Z,95.62
2018-09-29T01:36:46.317Z,95.50
2018-09-29T01:37:46.789Z,95.46
2018-09-29T01:38:47.257Z,95.51
2018-09-29T01:39:50.765Z,95.52
2018-09-29T01:40:48.200Z,95.55
2018-09-29T01:41:48.675Z,95.62
2018-09-29T01:42:49.143Z,95.72
2018-09-29T01:43:49.615Z,95.87
2018-09-29T01:44:50.093Z,95.93
2018-09-29T01:45:50.558Z,96.00
2018-09-29T01:46:51.031Z,96.03
2018-09-29T01:47:51.509Z,96.08
2018-09-29T01:48:51.976Z,96.12
2018-09-29T01:49:52.449Z,96.11
2018-09-29T01:50:52.924Z,96.14
2018-09-29T01:51:53.394Z,96.13
2018-09-29T01:52:53.868Z,96.21
2018-09-29T01:53:54.341Z,96.25
2018-09-29T01:54:54.815Z,96.28
2018-09-29T01:55:55.288Z,96.31
2018-09-29T01:56:55.768Z,96.31
2018-09-29T01:57:56.237Z,96.30
2018-09-29T01:58:56.709Z,96.29
2018-09-29T01:59:57.184Z,96.27
2018-09-29T02:00:57.656Z,96.23
2018-09-29T02:01:58.130Z,96.19
2018-09-29T02:02:58.604Z,96.18
2018-09-29T02:03:59.078Z,96.18
2018-09-29T02:04:59.552Z,96.22
2018-09-29T02:06:00.026Z,96.18
2018-09-29T02:07:00.499Z,96.18
2018-09-29T02:08:01.008Z,96.18
2018-09-29T02:09:01.447Z,96.18
2018-09-29T02:10:01.921Z,96.14
2018-09-29T02:11:02.395Z,96.18
2018-09-29T02:12:02.870Z,96.22
2018-09-29T02:13:03.339Z,96.26
2018-09-29T02:14:03.813Z,96.29
2018-09-29T02:15:04.284Z,96.33
2018-09-29T02:16:04.758Z,96.40
2018-09-29T02:17:05.230Z,96.43
2018-09-29T02:18:05.702Z,96.48
2018-09-29T02:19:06.175Z,96.51
2018-09-29T02:20:06.646Z,96.58
2018-09-29T02:21:07.120Z,96.61
2018-09-29T02:22:07.588Z,96.65
2018-09-29T02:23:08.060Z,96.68
2018-09-29T02:24:08.534Z,96.72
2018-09-29T02:25:09.002Z,96.75
2018-09-29T02:26:09.472Z,96.79
2018-09-29T02:27:09.945Z,96.83
2018-09-29T02:28:10.413Z,96.84
2018-09-29T02:29:10.889Z,96.86
2018-09-29T02:30:11.355Z,96.89
2018-09-29T02:31:11.825Z,96.92
2018-09-29T02:32:12.296Z,96.92
2018-09-29T02:33:12.764Z,96.96
2018-09-29T02:34:13.238Z,96.96
2018-09-29T02:35:13.705Z,96.96
2018-09-29T02:36:14.176Z,96.96
2018-09-29T02:37:14.645Z,96.96
2018-09-29T02:38:15.116Z,96.96
2018-09-29T02:39:15.585Z,96.99
2018-09-29T02:40:16.055Z,97.00
2018-09-29T02:41:16.527Z,97.00
2018-09-29T02:42:16.997Z,97.00
2018-09-29T02:43:17.466Z,97.02
2018-09-29T02:44:17.938Z,97.05
2018-09-29T02:45:18.408Z,97.04
2018-09-29T02:46:18.877Z,97.07
2018-09-29T02:47:19.355Z,97.06
2018-09-29T02:48:19.819Z,97.07
2018-09-29T02:49:20.289Z,97.09
2018-09-29T02:50:20.759Z,97.12
2018-09-29T02:51:21.234Z,97.11
2018-09-29T02:52:21.707Z,97.13
2018-09-29T02:53:22.176Z,97.13
2018-09-29T02:54:22.645Z,97.14
2018-09-29T02:55:23.119Z,97.16
2018-09-29T02:56:23.591Z,97.15
2018-09-29T02:57:24.061Z,97.16
2018-09-29T02:58:24.534Z,97.17
2018-09-29T02:59:25.006Z,97.20
2018-09-29T03:00:25.481Z,97.20
2018-09-29T03:01:25.950Z,97.21
2018-09-29T03:02:26.426Z,97.22
2018-09-29T03:03:26.897Z,97.23
2018-09-29T03:04:27.373Z,97.23
2018-09-29T03:05:27.841Z,97.23
2018-09-29T03:06:28.317Z,97.19
2018-09-29T03:07:28.792Z,97.19
2018-09-29T03:08:29.265Z,97.19
2018-09-29T03:09:29.736Z,97.20
2018-09-29T03:10:30.210Z,97.20
2018-09-29T03:11:30.685Z,97.16
2018-09-29T03:12:31.161Z,97.14
2018-09-29T03:13:31.637Z,97.13
2018-09-29T03:14:32.107Z,97.09
2018-09-29T03:15:32.580Z,97.08
2018-09-29T03:16:33.054Z,97.08
2018-09-29T03:17:33.526Z,97.07
2018-09-29T03:18:34.003Z,97.09
2018-09-29T03:19:34.474Z,97.11
2018-09-29T03:20:34.950Z,97.10
2018-09-29T03:21:35.422Z,97.09
2018-09-29T03:22:35.901Z,97.12
2018-09-29T03:23:36.367Z,97.12
2018-09-29T03:24:36.840Z,97.15
2018-09-29T03:25:37.311Z,97.15
2018-09-29T03:26:37.794Z,97.15
2018-09-29T03:27:38.259Z,97.17
2018-09-29T03:28:38.734Z,97.19
2018-09-29T03:29:39.201Z,97.19
2018-09-29T03:30:39.675Z,97.22
2018-09-29T03:31:40.205Z,97.23
2018-09-29T03:32:40.619Z,97.25
2018-09-29T03:33:41.087Z,97.26
2018-09-29T03:34:41.558Z,97.26
2018-09-29T03:35:42.032Z,97.26
2018-09-29T03:36:42.501Z,97.26
2018-09-29T03:37:42.986Z,97.26
2018-09-29T03:38:43.444Z,97.26
2018-09-29T03:39:43.911Z,97.25
2018-09-29T03:40:44.382Z,97.22
2018-09-29T03:41:44.852Z,97.21
2018-09-29T03:42:45.322Z,97.16
2018-09-29T03:43:45.792Z,97.11
2018-09-29T03:44:46.311Z,97.09
2018-09-29T03:45:46.731Z,97.05
2018-09-29T03:46:47.206Z,96.98
2018-09-29T03:47:47.673Z,96.92
2018-09-29T03:48:48.142Z,96.83
2018-09-29T03:49:48.610Z,96.70
2018-09-29T03:50:49.081Z,96.54
2018-09-29T03:51:49.554Z,96.41
2018-09-29T03:52:50.021Z,96.27
2018-09-29T03:53:50.494Z,96.11
2018-09-29T03:54:50.961Z,95.95
2018-09-29T03:55:51.432Z,95.73
2018-09-29T03:56:51.905Z,95.48
2018-09-29T03:57:52.373Z,95.19
2018-09-29T03:58:52.843Z,94.94
2018-09-29T03:59:53.315Z,94.64
2018-09-29T04:00:53.785Z,94.47
2018-09-29T04:01:54.406Z,94.37
2018-09-29T04:02:54.727Z,94.23
2018-09-29T04:03:55.201Z,94.20
2018-09-29T04:04:55.669Z,94.17
2018-09-29T04:05:56.141Z,94.12
2018-09-29T04:06:56.613Z,94.15
2018-09-29T04:07:57.084Z,94.21
2018-09-29T04:08:57.559Z,94.33
2018-09-29T04:09:58.027Z,94.42
2018-09-29T04:10:58.500Z,94.40
2018-09-29T04:11:58.972Z,94.26
2018-09-29T04:12:59.453Z,94.11
2018-09-29T04:13:59.978Z,93.91
2018-09-29T04:15:00.389Z,93.68
2018-09-29T04:16:00.864Z,93.44
2018-09-29T04:17:01.337Z,93.27
2018-09-29T04:18:01.808Z,93.08
2018-09-29T04:19:02.282Z,92.94
2018-09-29T04:20:02.758Z,92.89
2018-09-29T04:21:03.229Z,92.81
2018-09-29T04:22:03.751Z,92.70
2018-09-29T04:23:04.175Z,92.62
2018-09-29T04:24:04.649Z,92.49
2018-09-29T04:25:05.123Z,92.42
2018-09-29T04:26:05.595Z,92.31
2018-09-29T04:27:06.069Z,92.10
2018-09-29T04:28:06.544Z,91.77
2018-09-29T04:29:07.016Z,91.68
2018-09-29T04:30:07.495Z,91.63
2018-09-29T04:31:07.966Z,91.72
2018-09-29T04:32:08.437Z,91.84
2018-09-29T04:33:08.910Z,91.99
2018-09-29T04:34:09.382Z,92.12
2018-09-29T04:35:09.857Z,92.13
2018-09-29T04:36:10.331Z,92.17
2018-09-29T04:37:10.818Z,92.13
2018-09-29T04:38:11.277Z,92.08
2018-09-29T04:39:11.746Z,92.16
2018-09-29T04:40:12.222Z,92.29
2018-09-29T04:41:12.692Z,92.26
2018-09-29T04:42:13.162Z,92.30
2018-09-29T04:43:13.685Z,92.40
2018-09-29T04:44:14.108Z,92.49
2018-09-29T04:45:14.577Z,92.60
2018-09-29T04:46:15.050Z,92.77
2018-09-29T04:47:18.859Z,92.82
2018-09-29T04:48:15.994Z,92.90
2018-09-29T04:49:16.508Z,92.85
2018-09-29T04:50:16.931Z,92.58
2018-09-29T04:51:17.404Z,92.09
2018-09-29T04:52:17.875Z,91.69
2018-09-29T04:53:18.343Z,91.37
2018-09-29T04:54:18.811Z,91.17
2018-09-29T04:55:19.283Z,90.96
2018-09-29T04:56:19.753Z,90.76
2018-09-29T04:57:20.221Z,90.63
2018-09-29T04:58:20.695Z,90.67
2018-09-29T04:59:21.165Z,90.54
2018-09-29T05:00:21.634Z,90.42
2018-09-29T05:01:22.102Z,90.37
2018-09-29T05:02:22.571Z,90.25
2018-09-29T05:03:23.044Z,90.29
2018-09-29T05:04:23.510Z,90.40
2018-09-29T05:05:23.981Z,90.72
2018-09-29T05:06:24.458Z,90.57
2018-09-29T05:07:24.919Z,90.40
2018-09-29T05:08:25.393Z,90.18
2018-09-29T05:09:25.861Z,90.22
2018-09-29T05:10:26.333Z,90.32
2018-09-29T05:11:26.803Z,90.18
2018-09-29T05:12:27.273Z,90.15
2018-09-29T05:13:27.743Z,90.16
2018-09-29T05:14:28.213Z,90.13
2018-09-29T05:15:28.686Z,89.98
2018-09-29T05:16:29.169Z,89.88
2018-09-29T05:17:29.627Z,89.79
2018-09-29T05:18:30.097Z,89.64
2018-09-29T05:19:30.569Z,89.49
2018-09-29T05:20:31.041Z,89.38
2018-09-29T05:21:31.512Z,89.14
2018-09-29T05:22:31.983Z,89.29
2018-09-29T05:23:32.456Z,88.96
2018-09-29T05:24:32.928Z,88.63
2018-09-29T05:25:33.400Z,88.41
2018-09-29T05:26:33.875Z,88.19
2018-09-29T05:27:34.344Z,88.31
2018-09-29T05:28:34.821Z,88.45
2018-09-29T05:29:35.289Z,88.52
2018-09-29T05:30:35.763Z,88.41
2018-09-29T05:31:36.233Z,88.13
2018-09-29T05:32:36.709Z,87.91
2018-09-29T05:33:37.180Z,87.51
2018-09-29T05:34:37.656Z,87.44
2018-09-29T05:35:38.128Z,87.11
2018-09-29T05:36:38.602Z,86.52
2018-09-29T05:37:39.075Z,86.15
2018-09-29T05:38:39.547Z,85.93
2018-09-29T05:39:40.021Z,85.48
2018-09-29T05:40:40.495Z,84.98
2018-09-29T05:41:40.968Z,84.74
2018-09-29T05:42:41.441Z,85.53
2018-09-29T05:43:41.915Z,85.58
2018-09-29T05:44:42.389Z,85.82
2018-09-29T05:45:42.869Z,85.83
2018-09-29T05:46:43.337Z,85.21
2018-09-29T05:47:43.808Z,84.89
2018-09-29T05:48:44.320Z,84.31
2018-09-29T05:49:44.757Z,83.64
2018-09-29T05:50:45.231Z,83.42
2018-09-29T05:51:45.719Z,83.76
2018-09-29T05:52:46.176Z,83.84
2018-09-29T05:53:46.700Z,83.69
2018-09-29T05:54:47.121Z,84.94
2018-09-29T05:55:47.593Z,85.20
2018-09-29T05:56:48.064Z,85.60
2018-09-29T05:57:48.536Z,85.86
2018-09-29T05:58:49.054Z,86.61
2018-09-29T05:59:49.481Z,86.16
2018-09-29T06:00:49.951Z,86.26
2018-09-29T06:01:50.424Z,86.01
2018-09-29T06:02:50.895Z,86.27
2018-09-29T06:03:51.364Z,84.71
2018-09-29T06:05:52.354Z,83.58
2018-09-29T06:06:52.777Z,83.06
2018-09-29T06:07:53.248Z,83.38
2018-09-29T06:08:53.718Z,83.60
2018-09-29T06:09:54.187Z,84.06
2018-09-29T06:10:54.656Z,84.63
2018-09-29T06:11:55.128Z,82.89
2018-09-29T06:12:55.605Z,83.37
2018-09-29T06:13:56.068Z,83.34
2018-09-29T06:14:56.539Z,83.45
2018-09-29T06:15:57.008Z,81.72
2018-09-29T06:16:57.481Z,80.36
2018-09-29T06:17:57.950Z,80.21
2018-09-29T06:18:58.417Z,80.34
2018-09-29T06:19:58.890Z,80.55
2018-09-29T06:20:59.418Z,79.70
2018-09-29T06:21:59.832Z,79.42
2018-09-29T06:23:00.299Z,80.04
2018-09-29T06:24:00.771Z,81.67
2018-09-29T06:25:01.240Z,82.56
2018-09-29T06:26:01.711Z,81.98
2018-09-29T06:27:02.183Z,81.94
2018-09-29T06:28:02.759Z,81.47
2018-09-29T06:29:03.123Z,81.42
2018-09-29T06:30:03.598Z,81.85
2018-09-29T06:31:04.067Z,82.62
2018-09-29T06:32:04.541Z,83.37
2018-09-29T06:33:05.012Z,84.06
2018-09-29T06:34:05.531Z,83.15
2018-09-29T06:35:05.952Z,84.22
2018-09-29T06:36:06.426Z,83.79
2018-09-29T06:37:06.901Z,81.98
2018-09-29T06:38:07.373Z,82.45
2018-09-29T06:39:07.846Z,83.30
2018-09-29T06:40:08.316Z,84.68
2018-09-29T06:41:08.793Z,85.24
2018-09-29T06:42:09.265Z,84.25
2018-09-29T06:43:09.735Z,83.13
2018-09-29T06:44:10.214Z,83.62
2018-09-29T06:45:10.683Z,83.18
2018-09-29T06:46:11.162Z,81.58
2018-09-29T06:47:11.631Z,79.88
2018-09-29T06:48:12.117Z,78.18
2018-09-29T06:49:12.582Z,77.95
2018-09-29T06:50:13.058Z,79.25
2018-09-29T06:51:13.527Z,79.55
2018-09-29T06:52:14.002Z,79.47
2018-09-29T06:53:14.476Z,77.38
2018-09-29T06:54:14.950Z,77.66
2018-09-29T06:55:15.425Z,77.99
2018-09-29T06:56:15.900Z,76.70
2018-09-29T06:57:16.378Z,75.10
2018-09-29T06:58:16.846Z,78.28
2018-09-29T06:59:17.320Z,78.41
2018-09-29T07:00:17.791Z,77.88
2018-09-29T07:01:18.267Z,77.29
2018-09-29T07:02:18.741Z,78.37
2018-09-29T07:03:19.213Z,76.18
2018-09-29T07:04:19.687Z,75.99
2018-09-29T07:05:20.161Z,75.07
2018-09-29T07:06:20.633Z,74.24
2018-09-29T07:07:21.106Z,74.63
2018-09-29T07:08:21.577Z,74.70
2018-09-29T07:09:22.059Z,74.69
2018-09-29T07:10:22.524Z,74.27
2018-09-29T07:11:22.994Z,71.74
2018-09-29T07:12:23.467Z,70.70
2018-09-29T07:13:23.938Z,75.51
2018-09-29T07:14:24.412Z,72.07
2018-09-29T07:15:24.881Z,71.01
2018-09-29T07:16:25.354Z,72.91
2018-09-29T07:17:25.864Z,74.98
2018-09-29T07:18:26.296Z,78.07
2018-09-29T07:19:26.767Z,75.84
2018-09-29T07:20:27.238Z,75.58
2018-09-29T07:21:27.747Z,74.84
2018-09-29T07:22:28.179Z,79.16
2018-09-29T07:23:28.650Z,77.40
2018-09-29T07:24:29.121Z,74.49
2018-09-29T07:25:29.642Z,72.80
2018-09-29T07:26:30.062Z,78.87
2018-09-29T07:27:30.531Z,75.89
2018-09-29T07:28:31.006Z,74.64
2018-09-29T07:29:31.476Z,72.54
2018-09-29T07:30:31.947Z,72.69
2018-09-29T07:31:32.483Z,72.81
2018-09-29T07:32:32.885Z,72.91
2018-09-29T07:33:33.356Z,71.08
2018-09-29T07:34:33.828Z,73.06
2018-09-29T07:35:34.297Z,72.46
2018-09-29T07:36:34.771Z,70.84
2018-09-29T07:37:35.240Z,73.91
2018-09-29T07:38:35.713Z,73.08
2018-09-29T07:39:36.183Z,72.17
2018-09-29T07:40:36.657Z,71.08
2018-09-29T07:41:37.129Z,70.97
2018-09-29T07:42:37.602Z,70.23
2018-09-29T07:43:38.076Z,67.60
2018-09-29T07:44:38.543Z,64.08
2018-09-29T07:45:39.019Z,61.69
2018-09-29T07:46:39.491Z,62.56
2018-09-29T07:47:39.963Z,58.83
2018-09-29T07:48:40.437Z,59.36
2018-09-29T07:49:40.909Z,58.42
2018-09-29T07:50:41.384Z,57.91
2018-09-29T07:51:41.858Z,58.91
2018-09-29T07:52:42.331Z,60.46
2018-09-29T07:53:42.807Z,59.68
2018-09-29T07:54:43.343Z,61.11
2018-09-29T07:55:43.761Z,60.06
2018-09-29T07:56:44.229Z,57.44
2018-09-29T07:57:44.724Z,59.49
2018-09-29T07:58:45.180Z,55.30
2018-09-29T07:59:45.655Z,53.81
2018-09-29T08:00:46.127Z,53.71
2018-09-29T08:01:46.603Z,58.28
2018-09-29T08:02:47.079Z,59.00
2018-09-29T08:03:47.554Z,55.24
2018-09-29T08:04:48.030Z,57.49
2018-09-29T08:05:48.503Z,57.35
2018-09-29T08:06:48.980Z,63.00
2018-09-29T08:07:49.451Z,63.26
2018-09-29T08:08:49.926Z,61.25
2018-09-29T08:09:50.402Z,60.66
2018-09-29T08:10:50.877Z,61.53
2018-09-29T08:11:51.350Z,64.34
2018-09-29T08:12:51.823Z,65.63
2018-09-29T08:13:52.298Z,64.78
2018-09-29T08:14:52.771Z,64.36
2018-09-29T08:15:53.243Z,66.93
2018-09-29T08:16:53.717Z,68.70
2018-09-29T08:17:54.191Z,70.06
2018-09-29T08:18:54.667Z,70.94
2018-09-29T08:19:55.138Z,67.40
2018-09-29T08:20:55.617Z,74.98
2018-09-29T08:21:56.084Z,68.07
2018-09-29T08:22:56.559Z,67.59
2018-09-29T08:23:57.029Z,66.49
2018-09-29T08:24:57.503Z,66.20
2018-09-29T08:25:57.979Z,67.69
2018-09-29T08:26:58.448Z,67.39
2018-09-29T08:27:58.921Z,66.86
2018-09-29T08:28:59.394Z,69.87
2018-09-29T08:29:59.867Z,71.01
2018-09-29T08:31:00.338Z,73.93
2018-09-29T08:32:00.809Z,67.35
2018-09-29T08:33:01.284Z,73.69
2018-09-29T08:34:01.756Z,72.13
2018-09-29T08:35:02.530Z,64.90
2018-09-29T08:36:02.697Z,74.40
2018-09-29T08:37:03.168Z,75.26
2018-09-29T08:38:03.640Z,77.29
2018-09-29T08:39:04.112Z,77.81
2018-09-29T08:40:04.583Z,63.42
2018-09-29T08:41:05.054Z,71.98
2018-09-29T08:42:05.525Z,70.00
2018-09-29T08:43:05.997Z,71.84
2018-09-29T08:44:06.467Z,79.45
2018-09-29T08:45:06.937Z,71.17
2018-09-29T08:46:07.410Z,64.28
2018-09-29T08:47:07.881Z,68.48
2018-09-29T08:48:08.351Z,70.47
2018-09-29T08:49:08.873Z,67.02
2018-09-29T08:50:09.294Z,65.19
2018-09-29T08:51:09.764Z,68.27
2018-09-29T08:52:10.238Z,68.61
2018-09-29T08:53:10.757Z,66.02
2018-09-29T08:54:11.180Z,63.97
2018-09-29T08:55:11.649Z,66.55
2018-09-29T08:56:12.124Z,67.01
2018-09-29T08:57:12.594Z,69.08
2018-09-29T08:58:13.065Z,68.40
2018-09-29T08:59:13.538Z,66.94
2018-09-29T09:00:14.010Z,67.67
2018-09-29T09:01:14.483Z,68.02
2018-09-29T09:02:14.957Z,68.82
2018-09-29T09:03:15.431Z,65.15
2018-09-29T09:04:15.903Z,64.55
2018-09-29T09:05:16.377Z,68.78
2018-09-29T09:06:16.881Z,66.56
2018-09-29T09:07:17.328Z,67.89
2018-09-29T09:08:17.798Z,65.73
2018-09-29T09:09:18.333Z,67.55
2018-09-29T09:10:18.746Z,62.86
2018-09-29T09:11:19.225Z,63.46
2018-09-29T09:12:19.695Z,64.15
2018-09-29T09:13:20.172Z,73.31
2018-09-29T09:14:20.647Z,68.99
2018-09-29T09:15:21.124Z,72.41
2018-09-29T09:16:21.599Z,68.67
2018-09-29T09:17:22.073Z,73.05
2018-09-29T09:18:22.548Z,76.99
2018-09-29T09:19:23.024Z,73.40
2018-09-29T09:20:23.501Z,74.57
2018-09-29T09:21:23.975Z,78.98
2018-09-29T09:22:24.452Z,78.44
2018-09-29T09:23:24.931Z,73.88
2018-09-29T09:24:25.402Z,76.87
2018-09-29T09:25:25.876Z,79.03
2018-09-29T09:26:26.353Z,81.42
2018-09-29T09:27:26.827Z,79.52
2018-09-29T09:28:27.301Z,73.78
2018-09-29T09:29:27.778Z,71.29
2018-09-29T09:30:28.255Z,66.47
2018-09-29T09:31:28.733Z,62.46
2018-09-29T09:32:29.204Z,64.68
2018-09-29T09:33:29.679Z,62.74
2018-09-29T09:35:30.630Z,65.71
2018-09-29T09:36:31.104Z,52.42
2018-09-29T09:37:31.579Z,58.21
2018-09-29T09:38:32.054Z,69.19
2018-09-29T09:39:32.532Z,59.08
2018-09-29T09:40:33.002Z,73.74
2018-09-29T09:41:33.477Z,74.58
2018-09-29T09:42:33.953Z,77.96
2018-09-29T09:43:34.487Z,79.33
2018-09-29T09:44:34.902Z,80.33
2018-09-29T09:45:35.375Z,78.77
2018-09-29T09:46:35.849Z,74.26
2018-09-29T09:47:36.326Z,78.37
2018-09-29T09:48:36.797Z,79.75
2018-09-29T09:49:37.551Z,80.22
2018-09-29T09:50:37.746Z,76.58
2018-09-29T09:51:38.220Z,77.94
2018-09-29T09:52:38.697Z,76.86
2018-09-29T09:53:39.166Z,76.15
2018-09-29T09:54:39.640Z,75.78
2018-09-29T09:55:40.113Z,75.51
2018-09-29T09:56:40.586Z,77.01
2018-09-29T09:57:41.061Z,78.23
2018-09-29T09:58:41.537Z,75.16
2018-09-29T09:59:42.010Z,75.81
2018-09-29T10:00:42.482Z,74.90
2018-09-29T10:01:42.955Z,75.59
2018-09-29T10:02:43.440Z,74.86
2018-09-29T10:03:43.910Z,72.39
2018-09-29T10:04:44.378Z,62.70
2018-09-29T10:05:44.848Z,66.23
2018-09-29T10:06:45.320Z,70.88
2018-09-29T10:07:45.794Z,72.35
2018-09-29T10:08:46.267Z,71.09
2018-09-29T10:09:46.738Z,70.83
2018-09-29T10:10:47.213Z,71.01
2018-09-29T10:11:47.689Z,71.29
2018-09-29T10:12:48.159Z,69.63
2018-09-29T10:13:48.630Z,67.70
2018-09-29T10:14:49.106Z,69.50
2018-09-29T10:15:49.580Z,67.46
2018-09-29T10:16:50.049Z,66.69
2018-09-29T10:17:50.524Z,64.48
2018-09-29T10:18:50.995Z,66.33
2018-09-29T10:19:51.469Z,62.87
2018-09-29T10:20:51.940Z,60.79
2018-09-29T10:21:52.411Z,66.80
2018-09-29T10:22:52.885Z,71.29
2018-09-29T10:23:53.362Z,68.47
2018-09-29T10:24:53.840Z,68.22
2018-09-29T10:25:54.303Z,65.30
2018-09-29T10:26:54.779Z,61.54
2018-09-29T10:27:55.250Z,59.70
2018-09-29T10:28:55.723Z,61.56
2018-09-29T10:29:56.195Z,66.71
2018-09-29T10:30:56.667Z,63.48
2018-09-29T10:31:57.138Z,58.55
2018-09-29T10:32:57.612Z,64.03
2018-09-29T10:33:58.085Z,64.87
2018-09-29T10:34:58.556Z,64.95
2018-09-29T10:35:59.029Z,62.66
2018-09-29T10:36:59.507Z,65.63
2018-09-29T10:37:59.976Z,67.57
2018-09-29T10:39:00.448Z,66.12
2018-09-29T10:40:00.920Z,66.74
2018-09-29T10:41:01.404Z,68.15
2018-09-29T10:42:01.865Z,68.17
2018-09-29T10:43:02.337Z,68.32
2018-09-29T10:44:02.870Z,64.68
2018-09-29T10:45:03.283Z,65.30
2018-09-29T10:46:03.754Z,68.59
2018-09-29T10:47:04.226Z,67.28
2018-09-29T10:48:04.699Z,64.34
2018-09-29T10:49:05.172Z,66.06
2018-09-29T10:50:05.644Z,64.31
2018-09-29T10:51:06.117Z,63.92
2018-09-29T10:52:06.590Z,67.59
2018-09-29T10:53:07.066Z,68.95
2018-09-29T10:54:07.535Z,64.69
2018-09-29T10:55:08.007Z,62.98
2018-09-29T10:56:08.482Z,65.38
2018-09-29T10:57:08.951Z,62.37
2018-09-29T10:58:09.426Z,63.26
2018-09-29T10:59:09.949Z,65.36
2018-09-29T11:00:10.369Z,61.52
2018-09-29T11:01:10.841Z,68.04
2018-09-29T11:02:11.317Z,64.85
2018-09-29T11:03:11.787Z,65.42
2018-09-29T11:04:12.258Z,67.16
2018-09-29T11:05:12.731Z,64.98
2018-09-29T11:06:13.204Z,65.70
2018-09-29T11:07:13.675Z,67.71
2018-09-29T11:08:14.148Z,70.80
2018-09-29T11:09:14.621Z,71.05
2018-09-29T11:10:15.094Z,65.66
2018-09-29T11:11:15.568Z,67.29
2018-09-29T11:12:16.040Z,70.42
2018-09-29T11:13:16.510Z,70.70
2018-09-29T11:14:16.993Z,68.58
2018-09-29T11:15:17.457Z,65.30
2018-09-29T11:16:17.980Z,61.64
2018-09-29T11:17:18.400Z,64.42
2018-09-29T11:18:18.875Z,64.34
2018-09-29T11:19:19.348Z,62.83
2018-09-29T11:20:19.818Z,65.93
2018-09-29T11:21:20.292Z,58.63
2018-09-29T11:22:20.769Z,61.41
2018-09-29T11:23:21.237Z,63.23
2018-09-29T11:24:21.710Z,62.82
2018-09-29T11:25:22.185Z,61.69
2018-09-29T11:26:22.656Z,61.34
2018-09-29T11:27:23.129Z,59.40
2018-09-29T11:28:23.602Z,60.22
2018-09-29T11:29:24.073Z,59.85
2018-09-29T11:30:24.545Z,60.95
2018-09-29T11:31:25.019Z,61.05
2018-09-29T11:32:25.491Z,59.54
2018-09-29T11:33:25.964Z,58.70
2018-09-29T11:34:26.640Z,58.73
2018-09-29T11:35:26.909Z,57.40
2018-09-29T11:36:27.385Z,58.69
2018-09-29T11:37:27.853Z,61.05
2018-09-29T11:38:28.328Z,59.20
2018-09-29T11:39:28.898Z,56.41
2018-09-29T11:40:29.306Z,48.97
2018-09-29T11:41:29.751Z,53.85
2018-09-29T11:42:30.218Z,47.64
2018-09-29T11:43:30.696Z,51.79
2018-09-29T11:44:31.164Z,51.15
2018-09-29T11:45:31.639Z,45.31
2018-09-29T11:46:32.114Z,52.10
2018-09-29T11:47:32.583Z,45.76
2018-09-29T11:48:33.056Z,55.41
2018-09-29T11:49:33.529Z,53.93
2018-09-29T11:50:34.001Z,50.79
2018-09-29T11:51:34.474Z,52.43
2018-09-29T11:52:34.949Z,55.35
2018-09-29T11:53:35.419Z,53.65
2018-09-29T11:54:35.896Z,51.58
2018-09-29T11:55:36.366Z,51.52
2018-09-29T11:56:36.843Z,44.98
2018-09-29T11:57:37.311Z,43.03
2018-09-29T11:58:37.786Z,43.69
2018-09-29T11:59:38.260Z,51.95
2018-09-29T12:00:38.732Z,53.73
2018-09-29T12:01:39.259Z,52.61
2018-09-29T12:02:39.679Z,49.67
2018-09-29T12:03:40.153Z,52.16
2018-09-29T12:04:40.625Z,52.18
2018-09-29T12:05:41.100Z,52.35
2018-09-29T12:06:41.572Z,40.82
2018-09-29T12:07:42.169Z,37.75
2018-09-29T12:08:42.518Z,44.29
2018-09-29T12:09:42.991Z,48.93
2018-09-29T12:10:43.465Z,52.42
2018-09-29T12:11:43.943Z,47.38
2018-09-29T12:12:44.411Z,51.84
2018-09-29T12:13:44.930Z,58.32
2018-09-29T12:14:45.359Z,61.62
2018-09-29T12:15:45.831Z,61.57
2018-09-29T12:16:46.303Z,57.75
2018-09-29T12:17:46.776Z,55.84
2018-09-29T12:18:47.250Z,48.97
2018-09-29T12:19:47.725Z,51.73
2018-09-29T12:20:48.199Z,41.23
2018-09-29T12:21:48.673Z,61.26
2018-09-29T12:22:49.149Z,60.49
2018-09-29T12:23:49.617Z,52.60
2018-09-29T12:24:50.092Z,56.26
2018-09-29T12:25:50.564Z,55.24
2018-09-29T12:26:51.036Z,34.52
2018-09-29T12:27:51.512Z,29.51
2018-09-29T12:28:51.986Z,45.45
2018-09-29T12:29:52.519Z,30.25
2018-09-29T12:30:52.936Z,28.27
2018-09-29T12:31:53.406Z,22.75
2018-09-29T12:32:53.884Z,18.29
2018-09-29T12:33:54.355Z,30.02
2018-09-29T12:34:54.827Z,27.36
2018-09-29T12:35:55.300Z,29.74
2018-09-29T12:36:55.829Z,27.98
2018-09-29T12:37:56.246Z,29.40
2018-09-29T12:38:56.722Z,26.17
2018-09-29T12:39:57.194Z,25.47
2018-09-29T12:40:57.668Z,28.63
2018-09-29T12:41:58.141Z,26.88
2018-09-29T12:42:58.617Z,27.02
2018-09-29T12:43:59.090Z,30.22
2018-09-29T12:44:59.644Z,28.87
2018-09-29T12:46:00.036Z,29.57
2018-09-29T12:47:00.516Z,33.74
2018-09-29T12:48:00.984Z,33.09
2018-09-29T12:49:01.459Z,33.35
2018-09-29T12:50:01.973Z,34.77
2018-09-29T12:51:02.407Z,32.96
2018-09-29T12:52:02.963Z,30.95
2018-09-29T12:53:03.355Z,32.53
2018-09-29T12:54:03.829Z,31.68
2018-09-29T12:55:04.303Z,29.87
2018-09-29T12:56:04.776Z,35.50
2018-09-29T12:57:05.252Z,35.54
2018-09-29T12:58:05.724Z,36.65
2018-09-29T12:59:06.199Z,39.78
2018-09-29T13:00:06.673Z,39.26